Time;durP1;ratioP1;P1;durP2;ratioP2;P2;SDS_P1;SDS_P2;PMS_P1;PMS_P2;Temp;Humidity;BMP_temperature;BMP_pressure;BME280_temperature;BME280_humidity;BME280_pressure;Samples;Min_cycle;Max_cycle;Signal;HPM_P1;HPM_P2
2023/06/16 05:02:20;;;;;;;9.13;5.72;;;16.20;83.90;;;;;;5484848;23;20239;-70
2023/06/16 05:04:47;;;;;;;10.88;5.90;;;16.30;84.50;;;;;;4952542;29;20313;-70
2023/06/16 05:07:13;;;;;;;12.40;5.90;;;16.30;84.00;;;;;;4963688;29;20085;-72
2023/06/16 05:09:39;;;;;;;9.10;5.68;;;16.40;84.30;;;;;;4953481;29;20051;-71
2023/06/16 05:12:06;;;;;;;10.55;5.78;;;16.40;83.90;;;;;;4965381;29;20037;-70
2023/06/16 05:14:33;;;;;;;9.73;5.07;;;16.50;83.90;;;;;;4965073;28;20066;-69
2023/06/16 05:17:00;;;;;;;9.30;5.63;;;16.50;83.70;;;;;;4965284;29;20166;-71
2023/06/16 05:19:26;;;;;;;8.75;5.78;;;16.60;83.30;;;;;;4952265;28;20030;-71
2023/06/16 05:21:56;;;;;;;7.70;5.50;;;16.60;82.70;;;;;;4945967;29;20067;-71
2023/06/16 05:24:22;;;;;;;8.75;5.70;;;16.70;83.40;;;;;;4945949;29;20023;-71
2023/06/16 05:26:48;;;;;;;9.18;5.95;;;16.90;82.70;;;;;;4945191;29;20034;-70
2023/06/16 05:29:13;;;;;;;11.52;6.30;;;16.80;82.20;;;;;;4945697;29;20042;-71
2023/06/16 05:31:40;;;;;;;9.20;5.38;;;16.80;82.50;;;;;;4929899;29;20034;-71
2023/06/16 05:34:06;;;;;;;8.13;5.82;;;16.90;83.00;;;;;;4945780;29;20301;-72
2023/06/16 05:36:35;;;;;;;8.32;5.55;;;16.90;82.40;;;;;;4958440;29;20221;-68
2023/06/16 05:39:02;;;;;;;10.60;5.80;;;17.00;82.10;;;;;;4964819;29;20027;-71
2023/06/16 05:41:28;;;;;;;9.13;6.50;;;17.10;82.20;;;;;;4966303;29;20344;-69
2023/06/16 05:43:56;;;;;;;11.23;6.30;;;17.20;81.80;;;;;;4963445;28;20023;-70
2023/06/16 05:46:22;;;;;;;10.60;6.05;;;17.20;81.80;;;;;;4964489;29;20046;-69
2023/06/16 05:48:48;;;;;;;10.23;6.75;;;17.20;81.30;;;;;;4964120;29;20209;-70
2023/06/16 05:51:14;;;;;;;11.50;6.00;;;17.20;81.30;;;;;;4964636;28;20050;-74
2023/06/16 05:53:40;;;;;;;7.95;5.90;;;17.30;81.90;;;;;;4964361;28;20301;-72
2023/06/16 05:56:06;;;;;;;12.32;6.63;;;17.50;81.30;;;;;;4964213;28;20024;-71
2023/06/16 05:58:35;;;;;;;9.23;5.75;;;17.50;80.60;;;;;;4948377;29;20074;-70
2023/06/16 06:01:09;;;;;;;8.20;6.00;;;17.70;80.20;;;;;;4945698;29;20059;-69
2023/06/16 06:03:35;;;;;;;9.20;5.97;;;17.80;79.90;;;;;;4925403;29;20099;-73
2023/06/16 06:06:03;;;;;;;9.70;6.60;;;17.90;79.50;;;;;;4926267;29;20035;-72
2023/06/16 06:08:29;;;;;;;10.13;6.45;;;18.00;79.50;;;;;;4926010;29;20107;-70
2023/06/16 06:10:59;;;;;;;9.82;6.30;;;17.90;79.60;;;;;;4940829;29;20035;-73
2023/06/16 06:13:27;;;;;;;9.45;5.57;;;17.90;79.70;;;;;;4945172;29;20195;-70
2023/06/16 06:15:53;;;;;;;8.95;5.47;;;18.10;80.60;;;;;;4944679;29;20019;-71
2023/06/16 06:18:18;;;;;;;9.20;5.20;;;18.20;79.20;;;;;;4944993;29;20314;-69
2023/06/16 06:20:45;;;;;;;8.70;6.05;;;18.40;79.00;;;;;;4944556;29;20020;-72
2023/06/16 06:23:12;;;;;;;10.40;5.80;;;18.50;78.70;;;;;;4944825;29;20035;-71
2023/06/16 06:25:40;;;;;;;13.02;6.00;;;18.70;78.10;;;;;;4944511;29;20028;-72
2023/06/16 06:28:08;;;;;;;9.93;6.07;;;18.70;77.60;;;;;;4944610;29;20042;-72
2023/06/16 06:30:33;;;;;;;10.32;5.60;;;18.80;77.90;;;;;;4944856;29;20031;-71
2023/06/16 06:33:00;;;;;;;9.30;6.30;;;18.90;77.60;;;;;;4944179;29;20124;-70
2023/06/16 06:35:26;;;;;;;10.10;5.97;;;19.10;76.90;;;;;;4945209;29;20033;-69
2023/06/16 06:37:53;;;;;;;9.90;6.28;;;19.10;76.20;;;;;;4944465;29;20058;-68
2023/06/16 06:40:18;;;;;;;12.88;6.15;;;19.20;76.10;;;;;;4944577;29;20032;-71
2023/06/16 06:42:46;;;;;;;12.05;5.78;;;19.40;76.10;;;;;;4945125;29;20031;-71
2023/06/16 06:45:30;;;;;;;8.25;5.50;;;19.50;75.90;;;;;;4944533;29;20332;-69
2023/06/16 06:47:56;;;;;;;11.30;5.78;;;19.60;75.20;;;;;;4943879;29;20375;-68
2023/06/16 06:50:21;;;;;;;12.25;6.18;;;19.70;74.90;;;;;;4944479;29;20038;-70
2023/06/16 06:52:47;;;;;;;9.70;5.72;;;19.90;74.70;;;;;;4945214;29;20032;-70
2023/06/16 06:55:13;;;;;;;9.43;5.50;;;20.00;74.10;;;;;;4945268;29;20031;-71
2023/06/16 06:57:40;;;;;;;10.35;5.78;;;20.20;73.80;;;;;;4936289;29;20039;-72
2023/06/16 07:00:07;;;;;;;9.23;5.50;;;20.30;72.40;;;;;;4925584;29;20064;-69
2023/06/16 07:02:33;;;;;;;10.88;5.50;;;20.40;72.70;;;;;;4926240;29;20108;-72
2023/06/16 07:04:59;;;;;;;10.77;5.53;;;20.50;72.70;;;;;;4925808;29;20310;-68
2023/06/16 07:07:24;;;;;;;10.40;5.65;;;20.60;72.60;;;;;;4926730;29;20087;-71
2023/06/16 07:09:50;;;;;;;13.68;5.93;;;20.80;72.00;;;;;;4932504;29;20042;-71
2023/06/16 07:12:16;;;;;;;12.75;6.20;;;20.90;71.70;;;;;;4945473;29;20035;-71
2023/06/16 07:14:45;;;;;;;10.00;5.40;;;21.00;71.00;;;;;;4944891;29;20083;-71
2023/06/16 07:17:10;;;;;;;11.07;5.22;;;21.00;70.40;;;;;;4945499;29;20027;-71
2023/06/16 07:19:36;;;;;;;8.40;4.78;;;21.10;69.80;;;;;;4944185;29;20031;-72
2023/06/16 07:22:02;;;;;;;8.85;4.65;;;21.30;69.40;;;;;;4944371;29;20095;-69
2023/06/16 07:24:27;;;;;;;11.55;5.20;;;21.40;68.60;;;;;;4945154;29;20023;-70
2023/06/16 07:26:53;;;;;;;7.10;4.68;;;21.50;68.50;;;;;;4944500;29;20035;-72
2023/06/16 07:29:20;;;;;;;13.75;4.93;;;21.60;68.10;;;;;;4945269;29;20063;-68
2023/06/16 07:31:46;;;;;;;10.10;4.63;;;21.70;67.90;;;;;;4944954;29;20050;-71
2023/06/16 07:34:11;;;;;;;10.63;5.97;;;21.60;67.30;;;;;;4945102;29;20304;-69
2023/06/16 07:36:38;;;;;;;10.63;5.13;;;21.70;67.60;;;;;;4943978;29;20031;-70
2023/06/16 07:39:04;;;;;;;11.52;7.07;;;21.80;67.00;;;;;;4944687;29;20027;-72
2023/06/16 07:41:31;;;;;;;7.63;4.53;;;21.90;66.90;;;;;;4945400;29;20067;-69
2023/06/16 07:43:56;;;;;;;11.25;5.15;;;22.20;66.40;;;;;;4944623;29;20344;-69
2023/06/16 07:46:22;;;;;;;7.90;5.03;;;22.30;66.20;;;;;;4944192;29;20035;-70
2023/06/16 07:48:48;;;;;;;6.97;4.53;;;22.50;65.40;;;;;;4935191;29;20032;-72
2023/06/16 07:51:15;;;;;;;8.45;4.80;;;22.60;64.50;;;;;;4934471;29;20046;-69
2023/06/16 07:53:42;;;;;;;11.65;5.50;;;22.60;65.50;;;;;;4938148;29;20047;-69
2023/06/16 07:56:08;;;;;;;10.50;5.35;;;22.80;65.60;;;;;;4927907;29;20036;-71
2023/06/16 07:58:37;;;;;;;8.68;5.15;;;23.00;65.30;;;;;;4943230;29;20031;-69
2023/06/16 08:01:04;;;;;;;;;;;23.10;64.10;;;;;;4945106;29;20169;-69
2023/06/16 08:03:30;;;;;;;9.25;5.00;;;23.20;64.40;;;;;;4944752;29;19921;-71
2023/06/16 08:05:57;;;;;;;9.82;4.10;;;23.30;63.50;;;;;;4930067;29;20025;-70
2023/06/16 08:08:27;;;;;;;12.10;4.10;;;23.40;63.40;;;;;;4910068;29;20267;-72
2023/06/16 08:10:58;;;;;;;10.50;4.78;;;23.50;61.40;;;;;;4939167;29;20063;-71
2023/06/16 08:13:24;;;;;;;9.45;6.30;;;23.40;62.00;;;;;;4948120;29;20107;-71
2023/06/16 08:15:50;;;;;;;8.10;4.75;;;23.60;61.70;;;;;;4947512;29;20035;-72
2023/06/16 08:18:17;;;;;;;11.05;4.47;;;23.50;61.00;;;;;;4948089;29;20035;-69
2023/06/16 08:20:47;;;;;;;7.75;3.78;;;23.70;61.20;;;;;;4944686;29;20320;-71
2023/06/16 08:23:13;;;;;;;6.22;3.00;;;23.70;58.30;;;;;;4938981;29;20325;-70
2023/06/16 08:25:39;;;;;;;7.57;3.53;;;23.70;56.30;;;;;;4947697;29;20031;-71
2023/06/16 08:28:07;;;;;;;6.25;3.70;;;23.60;56.50;;;;;;4947649;29;20094;-70
2023/06/16 08:30:34;;;;;;;6.35;3.50;;;23.50;57.20;;;;;;4947657;29;20036;-70
2023/06/16 08:33:00;;;;;;;4.70;3.15;;;23.70;57.40;;;;;;4947425;29;20051;-70
2023/06/16 08:35:26;;;;;;;6.95;3.10;;;24.00;57.10;;;;;;4948038;29;20168;-71
2023/06/16 08:37:52;;;;;;;9.60;3.70;;;24.10;57.10;;;;;;4933341;29;20040;-72
2023/06/16 08:40:18;;;;;;;6.28;3.65;;;24.20;56.80;;;;;;4928792;29;20043;-70
2023/06/16 08:42:46;;;;;;;6.55;3.50;;;24.30;57.00;;;;;;4928330;29;20036;-71
2023/06/16 08:45:13;;;;;;;6.10;3.60;;;24.40;56.80;;;;;;4927788;29;20034;-72
2023/06/16 08:47:39;;;;;;;6.57;3.30;;;24.50;56.40;;;;;;4928474;29;20368;-70
2023/06/16 08:50:07;;;;;;;5.10;2.58;;;24.60;56.00;;;;;;4928441;29;20036;-71
2023/06/16 08:52:37;;;;;;;5.97;2.47;;;24.70;52.50;;;;;;4928080;29;20031;-70
2023/06/16 08:55:03;;;;;;;5.65;2.67;;;24.70;49.70;;;;;;4927704;29;20035;-69
2023/06/16 08:57:30;;;;;;;3.88;2.35;;;24.80;50.40;;;;;;4939206;29;20199;-70
2023/06/16 08:59:58;;;;;;;5.32;2.42;;;24.90;50.60;;;;;;4946816;29;20322;-69
2023/06/16 09:02:25;;;;;;;4.43;2.50;;;24.90;50.50;;;;;;4947444;29;20087;-72
2023/06/16 09:04:53;;;;;;;3.67;2.40;;;24.90;50.50;;;;;;4945585;29;20062;-72
2023/06/16 09:07:20;;;;;;;5.13;2.45;;;24.80;50.70;;;;;;4947559;29;20455;-70
2023/06/16 09:09:46;;;;;;;6.85;2.80;;;24.90;49.20;;;;;;4934302;29;20044;-70
2023/06/16 09:12:12;;;;;;;5.50;2.25;;;24.90;49.30;;;;;;4946254;29;20050;-70
2023/06/16 09:14:42;;;;;;;5.53;2.85;;;24.90;49.30;;;;;;4947277;29;20222;-70
2023/06/16 09:17:09;;;;;;;5.32;2.47;;;24.90;49.40;;;;;;4947007;29;20020;-70
2023/06/16 09:19:50;;;;;;;4.32;2.75;;;25.10;49.40;;;;;;4946313;29;20039;-71
2023/06/16 09:22:23;;;;;;;5.20;2.67;;;25.10;48.50;;;;;;4947193;29;20102;-72
2023/06/16 09:25:04;;;;;;;4.05;2.70;;;25.30;49.50;;;;;;4933249;29;20099;-71
2023/06/16 09:27:47;;;;;;;7.50;2.55;;;25.40;48.80;;;;;;4927808;29;20040;-71
2023/06/16 09:30:16;;;;;;;6.55;2.92;;;25.50;48.90;;;;;;4928084;29;20028;-71
2023/06/16 09:32:44;;;;;;;5.38;2.40;;;25.50;49.00;;;;;;4927624;29;20027;-71
2023/06/16 09:35:23;;;;;;;4.80;2.58;;;25.40;48.60;;;;;;4928160;29;20028;-71
2023/06/16 09:37:51;;;;;;;6.97;3.38;;;25.30;48.80;;;;;;4927158;29;20075;-71
2023/06/16 09:40:19;;;;;;;6.50;3.05;;;25.40;49.90;;;;;;4927557;29;20341;-74
2023/06/16 09:42:48;;;;;;;6.25;2.80;;;25.50;48.70;;;;;;4927279;29;20028;-71
2023/06/16 09:45:15;;;;;;;3.78;2.35;;;25.50;48.80;;;;;;4927663;29;20051;-69
2023/06/16 09:47:46;;;;;;;7.63;3.50;;;25.40;48.30;;;;;;4927381;29;20027;-71
2023/06/16 09:50:13;;;;;;;7.22;2.63;;;25.50;49.50;;;;;;4927565;29;20184;-70
2023/06/16 09:52:41;;;;;;;4.38;2.50;;;25.70;49.00;;;;;;4927495;29;20030;-71
2023/06/16 09:55:08;;;;;;;7.33;2.80;;;25.70;48.30;;;;;;4925861;29;20295;-72
2023/06/16 09:57:33;;;;;;;4.63;2.72;;;25.70;48.30;;;;;;4926252;29;20040;-69
2023/06/16 09:59:59;;;;;;;4.18;2.33;;;25.90;48.10;;;;;;4926243;29;20035;-70
2023/06/16 10:02:27;;;;;;;5.72;2.88;;;25.90;48.50;;;;;;4926630;29;20036;-70
2023/06/16 10:04:56;;;;;;;6.77;2.77;;;26.00;48.50;;;;;;4925523;29;20044;-71
2023/06/16 10:07:22;;;;;;;5.40;2.90;;;26.20;49.20;;;;;;4925970;29;20463;-73
2023/06/16 10:09:51;;;;;;;5.35;2.63;;;26.10;48.30;;;;;;4940571;29;20033;-72
2023/06/16 10:12:18;;;;;;;5.18;2.63;;;26.10;48.00;;;;;;4907592;29;20235;-70
2023/06/16 10:14:45;;;;;;;4.00;2.53;;;26.20;48.00;;;;;;4907878;29;20039;-71
2023/06/16 10:17:13;;;;;;;4.05;2.65;;;26.70;48.30;;;;;;4907994;29;20096;-73
2023/06/16 10:19:44;;;;;;;7.30;2.88;;;26.90;48.40;;;;;;4923140;29;20099;-72
2023/06/16 10:22:11;;;;;;;5.28;2.55;;;27.10;47.20;;;;;;4913017;29;20358;-72
2023/06/16 10:24:39;;;;;;;6.00;2.88;;;26.90;46.80;;;;;;4926890;29;20075;-71
2023/06/16 10:27:07;;;;;;;4.05;2.30;;;26.80;47.10;;;;;;4926365;29;20024;-70
2023/06/16 10:29:35;;;;;;;4.38;2.83;;;26.50;47.10;;;;;;4926803;29;20040;-71
2023/06/16 10:32:08;;;;;;;5.32;2.55;;;26.40;47.60;;;;;;4926334;29;20071;-74
2023/06/16 10:34:56;;;;;;;4.20;2.92;;;26.40;48.80;;;;;;4926407;29;20055;-71
2023/06/16 10:37:27;;;;;;;4.28;2.55;;;26.10;49.50;;;;;;4926848;29;20036;-71
2023/06/16 10:40:04;;;;;;;4.93;2.65;;;26.10;50.00;;;;;;4926510;29;20047;-71
2023/06/16 10:42:35;;;;;;;4.37;2.87;;;26.40;50.00;;;;;;4926558;29;20032;-71
2023/06/16 10:45:24;;;;;;;6.15;3.15;;;26.60;49.90;;;;;;4926234;29;20032;-70
2023/06/16 10:48:01;;;;;;;5.10;2.70;;;26.90;49.10;;;;;;4925832;29;20095;-72
2023/06/16 10:50:39;;;;;;;7.65;3.20;;;26.90;48.40;;;;;;4926830;29;20059;-71
2023/06/16 10:53:12;;;;;;;9.30;3.67;;;26.90;47.00;;;;;;4926002;29;20028;-70
2023/06/16 10:55:41;;;;;;;3.83;2.58;;;27.10;47.50;;;;;;4926733;29;20047;-69
2023/06/16 10:58:16;;;;;;;4.50;2.35;;;27.40;46.40;;;;;;4924642;29;20043;-70
2023/06/16 11:00:43;;;;;;;7.00;2.63;;;27.30;46.10;;;;;;4907419;29;20039;-70
2023/06/16 11:03:09;;;;;;;4.88;2.60;;;27.30;46.30;;;;;;4906252;29;20049;-71
2023/06/16 11:05:41;;;;;;;4.78;2.70;;;27.10;46.20;;;;;;4907726;29;20167;-70
2023/06/16 11:08:08;;;;;;;5.40;2.45;;;26.80;46.10;;;;;;4906725;29;20281;-73
2023/06/16 11:11:03;;;;;;;7.85;2.95;;;26.70;45.80;;;;;;4931995;29;20250;-69
2023/06/16 11:13:39;;;;;;;5.22;2.58;;;26.90;46.60;;;;;;4945541;29;20091;-70
2023/06/16 11:16:07;;;;;;;6.30;2.72;;;27.20;45.90;;;;;;4944776;29;20050;-70
2023/06/16 11:18:33;;;;;;;10.05;2.88;;;27.40;45.90;;;;;;4945495;29;20039;-70
2023/06/16 11:21:06;;;;;;;4.70;2.97;;;27.80;46.10;;;;;;4944693;29;20086;-71
2023/06/16 11:23:32;;;;;;;5.13;2.40;;;28.00;45.30;;;;;;4945591;29;20340;-70
2023/06/16 11:26:04;;;;;;;4.63;2.60;;;27.90;45.90;;;;;;4945039;29;20016;-71
2023/06/16 11:28:30;;;;;;;6.85;3.10;;;28.20;45.70;;;;;;4945001;29;20116;-71
2023/06/16 11:30:55;;;;;;;6.70;3.00;;;28.10;45.30;;;;;;4944787;29;20050;-72
2023/06/16 11:33:22;;;;;;;4.93;2.83;;;28.10;45.20;;;;;;4945199;29;20124;-72
2023/06/16 11:35:48;;;;;;;9.15;3.22;;;28.30;45.20;;;;;;4944163;29;20266;-72
2023/06/16 11:38:23;;;;;;;5.30;2.78;;;28.60;44.40;;;;;;4930152;29;20035;-71
2023/06/16 11:40:50;;;;;;;4.78;2.67;;;29.10;43.50;;;;;;4930293;29;20187;-72
2023/06/16 11:43:18;;;;;;;3.67;2.50;;;29.40;43.30;;;;;;4946994;29;20047;-68
2023/06/16 11:45:44;;;;;;;4.60;2.63;;;30.00;42.90;;;;;;4945723;29;20051;-72
2023/06/16 11:48:10;;;;;;;3.67;2.55;;;30.80;42.40;;;;;;4929202;29;20031;-70
2023/06/16 11:50:37;;;;;;;4.40;2.42;;;31.30;42.00;;;;;;4929411;29;20036;-71
2023/06/16 11:53:03;;;;;;;5.80;2.67;;;31.80;41.70;;;;;;4929002;29;20210;-72
2023/06/16 11:55:29;;;;;;;4.68;2.63;;;32.50;41.40;;;;;;4942057;29;20031;-72
2023/06/16 11:57:57;;;;;;;3.67;2.42;;;33.30;40.80;;;;;;4933527;29;20046;-72
2023/06/16 12:00:23;;;;;;;6.15;2.60;;;33.70;40.40;;;;;;4929723;29;20028;-73
2023/06/16 12:02:50;;;;;;;5.90;2.90;;;34.10;39.50;;;;;;4929238;29;20048;-72
2023/06/16 12:05:30;;;;;;;6.90;2.78;;;34.40;39.20;;;;;;4928325;29;20079;-71
2023/06/16 12:07:56;;;;;;;5.35;2.67;;;35.50;39.20;;;;;;4927793;29;20040;-74
2023/06/16 12:10:24;;;;;;;4.47;2.33;;;35.60;38.40;;;;;;4940124;29;20044;-70
2023/06/16 12:12:50;;;;;;;5.75;2.60;;;36.30;38.30;;;;;;4927474;29;20135;-70
2023/06/16 12:15:17;;;;;;;3.53;2.75;;;36.50;37.70;;;;;;4910432;29;20095;-69
2023/06/16 12:17:44;;;;;;;4.03;2.70;;;36.80;37.30;;;;;;4910514;29;20314;-71
2023/06/16 12:20:12;;;;;;;7.72;2.75;;;37.40;37.30;;;;;;4909854;29;20146;-72
2023/06/16 12:22:38;;;;;;;5.10;3.03;;;37.60;37.10;;;;;;4910412;29;20359;-72
2023/06/16 12:25:13;;;;;;;5.13;2.95;;;38.00;36.70;;;;;;4909628;29;20020;-71
2023/06/16 12:27:44;;;;;;;4.15;2.85;;;37.90;36.60;;;;;;4910225;29;20315;-71
2023/06/16 12:30:12;;;;;;;4.38;2.80;;;37.70;36.70;;;;;;4908944;29;20629;-70
2023/06/16 12:32:41;;;;;;;4.97;2.72;;;38.30;37.00;;;;;;4908925;29;20298;-70
2023/06/16 12:35:07;;;;;;;4.72;2.67;;;38.70;36.70;;;;;;4909637;29;20099;-70
2023/06/16 12:37:33;;;;;;;3.55;2.60;;;38.80;36.50;;;;;;4913283;29;20084;-68
2023/06/16 12:40:07;;;;;;;7.72;3.30;;;38.80;36.60;;;;;;4928637;29;20095;-70
2023/06/16 12:42:34;;;;;;;5.22;2.55;;;38.50;37.10;;;;;;4928580;29;20376;-70
2023/06/16 12:45:04;;;;;;;7.20;2.75;;;38.30;36.80;;;;;;4927706;29;20233;-68
2023/06/16 12:47:31;;;;;;;5.25;2.75;;;38.70;36.80;;;;;;4928872;29;20095;-71
2023/06/16 12:49:59;;;;;;;3.90;2.70;;;39.50;36.70;;;;;;4927948;29;20254;-70
2023/06/16 12:52:27;;;;;;;4.40;3.10;;;39.50;36.60;;;;;;4928560;29;20027;-70
2023/06/16 12:54:54;;;;;;;3.42;2.60;;;38.90;36.80;;;;;;4942798;29;20226;-70
2023/06/16 12:57:21;;;;;;;4.70;2.60;;;38.90;37.10;;;;;;4938211;29;20031;-70
2023/06/16 12:59:48;;;;;;;5.28;2.67;;;39.70;36.40;;;;;;4947400;29;20032;-70
2023/06/16 13:02:14;;;;;;;4.97;2.70;;;39.80;36.20;;;;;;4946416;29;20059;-70
2023/06/16 13:04:40;;;;;;;3.85;2.75;;;39.90;36.20;;;;;;4938404;29;20028;-69
2023/06/16 13:07:06;;;;;;;8.13;3.10;;;40.30;36.10;;;;;;4927504;29;20020;-70
2023/06/16 13:09:32;;;;;;;6.88;3.38;;;39.50;36.30;;;;;;4942872;29;20055;-71
2023/06/16 13:11:59;;;;;;;4.80;2.70;;;39.80;37.10;;;;;;4927897;29;20048;-70
2023/06/16 13:14:26;;;;;;;6.72;2.97;;;40.70;36.40;;;;;;4928375;29;20028;-70
2023/06/16 13:16:51;;;;;;;4.97;2.78;;;41.20;36.30;;;;;;4928387;29;20039;-70
2023/06/16 13:19:17;;;;;;;5.22;3.05;;;40.80;36.20;;;;;;4927805;29;20036;-70
2023/06/16 13:21:43;;;;;;;4.53;2.97;;;40.50;35.90;;;;;;4927690;29;20038;-70
2023/06/16 13:24:09;;;;;;;5.03;2.85;;;40.50;35.90;;;;;;4927715;29;20079;-71
2023/06/16 13:26:35;;;;;;;4.45;2.92;;;41.40;36.00;;;;;;4928126;29;20032;-70
2023/06/16 13:29:01;;;;;;;3.90;3.10;;;41.90;35.80;;;;;;4942241;29;20344;-71
2023/06/16 13:31:28;;;;;;;3.85;2.90;;;39.70;35.70;;;;;;4927763;29;20310;-70
2023/06/16 13:33:55;;;;;;;6.65;3.00;;;37.10;36.60;;;;;;4927553;29;20039;-71
2023/06/16 13:36:21;;;;;;;4.90;3.30;;;36.30;37.80;;;;;;4927259;29;20036;-69
2023/06/16 13:38:50;;;;;;;6.47;3.08;;;37.10;37.80;;;;;;4940416;29;20036;-70
2023/06/16 13:41:16;;;;;;;4.70;3.20;;;38.70;36.80;;;;;;4945877;29;20376;-70
2023/06/16 13:43:44;;;;;;;5.05;2.97;;;39.30;36.50;;;;;;4946672;29;20059;-70
2023/06/16 13:46:10;;;;;;;6.63;3.50;;;40.00;36.60;;;;;;4946047;29;20035;-69
2023/06/16 13:48:36;;;;;;;5.57;2.90;;;40.90;35.50;;;;;;4946613;29;20202;-70
2023/06/16 13:51:02;;;;;;;6.63;2.80;;;40.90;35.50;;;;;;4942373;29;20039;-70
2023/06/16 13:53:28;;;;;;;4.45;2.75;;;41.10;35.10;;;;;;4927502;29;20099;-71
2023/06/16 13:55:54;;;;;;;4.55;2.85;;;39.10;35.90;;;;;;4927061;29;20028;-70
2023/06/16 13:58:20;;;;;;;4.88;3.00;;;38.20;36.90;;;;;;4945117;29;20102;-71
2023/06/16 14:00:46;;;;;;;8.77;3.50;;;38.00;36.90;;;;;;4946587;29;20195;-75
2023/06/16 14:03:12;;;;;;;6.03;3.08;;;39.00;36.90;;;;;;4945428;29;20087;-70
2023/06/16 14:05:39;;;;;;;4.38;3.03;;;40.40;36.30;;;;;;4945935;29;20078;-70
2023/06/16 14:08:05;;;;;;;7.10;3.47;;;41.50;35.70;;;;;;4930535;29;20104;-69
2023/06/16 14:10:31;;;;;;;4.22;2.80;;;42.00;35.30;;;;;;4927321;29;20614;-71
2023/06/16 14:12:56;;;;;;;4.45;3.00;;;42.10;34.60;;;;;;4926939;29;20095;-70
2023/06/16 14:15:23;;;;;;;5.40;3.30;;;41.90;34.90;;;;;;4926996;29;20043;-69
2023/06/16 14:17:49;;;;;;;6.22;2.80;;;40.40;35.30;;;;;;4927198;29;20103;-69
2023/06/16 14:20:14;;;;;;;4.47;3.08;;;38.70;35.60;;;;;;4926683;29;20589;-69
2023/06/16 14:22:41;;;;;;;6.45;3.47;;;37.10;36.60;;;;;;4926523;29;20171;-68
2023/06/16 14:25:08;;;;;;;6.22;3.08;;;35.80;37.00;;;;;;4920570;29;20042;-70
2023/06/16 14:27:43;;;;;;;4.00;3.08;;;35.20;38.00;;;;;;4921555;29;20024;-69
2023/06/16 14:30:10;;;;;;;4.85;3.30;;;34.50;38.20;;;;;;4909177;29;20095;-71
2023/06/16 14:32:37;;;;;;;6.72;3.00;;;33.90;38.60;;;;;;4925506;29;20217;-70
2023/06/16 14:35:04;;;;;;;6.03;3.07;;;35.00;38.80;;;;;;4926440;29;20035;-70
2023/06/16 14:37:31;;;;;;;6.03;3.23;;;37.20;37.70;;;;;;4929299;29;20024;-71
2023/06/16 14:39:57;;;;;;;6.88;3.70;;;39.10;36.80;;;;;;4926471;29;20471;-71
2023/06/16 14:42:23;;;;;;;3.90;3.10;;;41.10;36.10;;;;;;4914079;29;20076;-69
2023/06/16 14:44:48;;;;;;;5.20;3.10;;;42.40;34.70;;;;;;4907464;29;20040;-68
2023/06/16 14:47:14;;;;;;;6.00;3.10;;;41.90;34.10;;;;;;4907113;29;20024;-69
2023/06/16 14:49:40;;;;;;;4.43;3.00;;;39.60;35.00;;;;;;4908028;29;20037;-70
2023/06/16 14:52:06;;;;;;;5.20;3.53;;;37.00;36.20;;;;;;4907505;29;20047;-69
2023/06/16 14:54:32;;;;;;;6.05;3.53;;;35.80;37.40;;;;;;4917200;29;20035;-70
2023/06/16 14:56:59;;;;;;;5.05;3.08;;;36.70;37.20;;;;;;4948053;29;20019;-70
2023/06/16 14:59:25;;;;;;;7.20;3.00;;;37.30;37.10;;;;;;4932853;29;20036;-70
2023/06/16 15:01:51;;;;;;;9.70;3.10;;;38.20;37.10;;;;;;4925792;29;20091;-70
2023/06/16 15:04:17;;;;;;;4.45;2.78;;;40.30;36.50;;;;;;4926168;29;20282;-71
2023/06/16 15:06:43;;;;;;;6.25;3.20;;;42.00;35.10;;;;;;4926429;29;20017;-72
2023/06/16 15:09:09;;;;;;;4.50;3.10;;;42.80;34.60;;;;;;4940005;29;20221;-71
2023/06/16 15:11:35;;;;;;;4.27;2.83;;;43.10;34.90;;;;;;4926121;29;20036;-70
2023/06/16 15:14:01;;;;;;;3.95;2.83;;;43.60;34.50;;;;;;4925507;29;20199;-71
2023/06/16 15:16:28;;;;;;;5.07;2.80;;;44.20;33.90;;;;;;4927654;29;20301;-73
2023/06/16 15:18:54;;;;;;;3.97;2.63;;;44.90;34.00;;;;;;4929947;29;20067;-72
2023/06/16 15:21:20;;;;;;;5.03;2.70;;;44.80;33.30;;;;;;4929593;29;20310;-73
2023/06/16 15:23:48;;;;;;;4.35;2.53;;;43.90;33.00;;;;;;4929614;29;20024;-73
2023/06/16 15:26:15;;;;;;;4.13;2.92;;;43.00;33.00;;;;;;4928854;29;20123;-72
2023/06/16 15:28:41;;;;;;;;;;;42.50;33.80;;;;;;4930478;29;20038;-75
2023/06/16 15:31:07;;;;;;;5.65;3.28;;;42.20;33.70;;;;;;4929575;29;20101;-72
2023/06/16 15:33:33;;;;;;;6.03;3.17;;;42.60;33.60;;;;;;4929603;29;20035;-73
2023/06/16 15:36:00;;;;;;;3.55;2.72;;;42.50;34.10;;;;;;4929685;29;20326;-72
2023/06/16 15:38:26;;;;;;;4.20;2.67;;;42.40;33.90;;;;;;4929569;29;20032;-73
2023/06/16 15:40:52;;;;;;;3.33;2.28;;;43.20;34.00;;;;;;4929072;29;20084;-73
2023/06/16 15:43:17;;;;;;;3.45;2.40;;;43.30;33.60;;;;;;4929358;29;20099;-72
2023/06/16 15:45:43;;;;;;;6.80;2.75;;;43.10;33.70;;;;;;4929921;29;20042;-74
2023/06/16 15:48:09;;;;;;;5.07;2.45;;;43.80;34.00;;;;;;4936769;29;20040;-73
2023/06/16 15:50:35;;;;;;;4.45;2.45;;;44.00;33.70;;;;;;4937696;29;20036;-72
2023/06/16 15:53:02;;;;;;;5.70;2.83;;;43.90;33.80;;;;;;4941970;29;20039;-73
2023/06/16 15:55:28;;;;;;;4.45;2.75;;;42.80;34.10;;;;;;4929395;29;20090;-73
2023/06/16 15:57:54;;;;;;;5.75;2.83;;;41.20;34.70;;;;;;4938208;29;20329;-73
2023/06/16 16:00:20;;;;;;;5.93;2.67;;;40.30;35.50;;;;;;4932888;28;20032;-72
2023/06/16 16:02:45;;;;;;;5.43;3.22;;;39.40;36.20;;;;;;4948170;29;20337;-73
2023/06/16 16:05:11;;;;;;;3.70;2.42;;;38.30;36.50;;;;;;4947160;29;20125;-73
2023/06/16 16:07:37;;;;;;;4.07;2.90;;;38.40;37.00;;;;;;4932231;29;20312;-72
2023/06/16 16:10:03;;;;;;;7.00;3.90;;;38.90;36.60;;;;;;4928674;29;20042;-73
2023/06/16 16:12:29;;;;;;;4.60;3.38;;;39.20;36.40;;;;;;4928698;29;20092;-73
2023/06/16 16:14:59;;;;;;;6.65;3.05;;;38.70;36.30;;;;;;4928021;29;20245;-74
2023/06/16 16:17:27;;;;;;;4.78;3.20;;;39.60;36.40;;;;;;4928637;29;20032;-73
2023/06/16 16:19:53;;;;;;;8.75;3.40;;;40.20;36.20;;;;;;4928921;29;20076;-72
2023/06/16 16:22:19;;;;;;;5.00;3.10;;;39.90;35.90;;;;;;4938215;29;20028;-72
2023/06/16 16:24:45;;;;;;;6.40;3.15;;;39.40;36.20;;;;;;4947763;29;20043;-73
2023/06/16 16:27:11;;;;;;;4.28;3.13;;;39.60;36.40;;;;;;4936354;29;20087;-73
2023/06/16 16:29:37;;;;;;;4.97;3.63;;;40.20;36.30;;;;;;4929209;29;20047;-73
2023/06/16 16:32:04;;;;;;;6.72;3.13;;;40.60;35.80;;;;;;4928368;29;20214;-72
2023/06/16 16:34:32;;;;;;;6.85;3.25;;;40.10;35.70;;;;;;4928457;29;20032;-72
2023/06/16 16:37:01;;;;;;;7.32;3.20;;;38.40;36.50;;;;;;4928672;29;20138;-74
2023/06/16 16:39:31;;;;;;;6.63;3.60;;;37.00;37.60;;;;;;4946428;29;20043;-73
2023/06/16 16:41:57;;;;;;;6.78;3.13;;;35.90;38.50;;;;;;4947469;29;20035;-72
2023/06/16 16:44:26;;;;;;;5.05;3.40;;;35.70;39.30;;;;;;4947238;29;20352;-72
2023/06/16 16:46:52;;;;;;;6.07;3.45;;;35.70;38.80;;;;;;4947390;29;20302;-75
2023/06/16 16:49:21;;;;;;;6.00;3.75;;;36.50;38.40;;;;;;4946889;29;20036;-73
2023/06/16 16:51:48;;;;;;;5.97;3.50;;;37.70;37.80;;;;;;4948068;29;20027;-72
2023/06/16 16:54:14;;;;;;;5.97;3.20;;;38.30;37.40;;;;;;4947198;29;20334;-73
2023/06/16 16:56:39;;;;;;;5.90;3.25;;;38.10;37.30;;;;;;4940704;29;20054;-73
2023/06/16 16:59:05;;;;;;;5.32;3.20;;;38.10;37.50;;;;;;4946774;29;20051;-74
2023/06/16 17:01:31;;;;;;;5.10;3.22;;;38.20;37.60;;;;;;4947450;29;20059;-73
2023/06/16 17:03:56;;;;;;;4.95;3.30;;;38.30;37.20;;;;;;4947420;29;20058;-75
2023/06/16 17:06:22;;;;;;;7.20;3.40;;;38.30;37.40;;;;;;4946546;29;20323;-70
2023/06/16 17:08:48;;;;;;;4.35;2.92;;;38.70;37.40;;;;;;4947267;29;20046;-71
2023/06/16 17:11:14;;;;;;;5.53;2.88;;;38.90;36.90;;;;;;4918343;29;20029;-71
2023/06/16 17:13:40;;;;;;;5.57;3.13;;;39.00;36.70;;;;;;4909567;29;20035;-73
2023/06/16 17:16:07;;;;;;;5.32;3.40;;;38.10;36.90;;;;;;4908758;29;20052;-72
2023/06/16 17:18:33;;;;;;;6.82;3.28;;;37.20;37.60;;;;;;4909440;29;20048;-71
2023/06/16 17:20:59;;;;;;;5.38;3.25;;;37.60;37.60;;;;;;4909254;29;20260;-71
2023/06/16 17:23:25;;;;;;;5.20;3.60;;;37.40;37.50;;;;;;4908672;29;20271;-75
2023/06/16 17:25:51;;;;;;;6.03;3.35;;;37.50;37.50;;;;;;4908983;29;20032;-73
2023/06/16 17:28:16;;;;;;;4.35;3.10;;;37.70;37.50;;;;;;4927428;29;20229;-74
2023/06/16 17:30:42;;;;;;;4.55;3.10;;;38.10;37.30;;;;;;4928154;29;20020;-73
2023/06/16 17:33:09;;;;;;;5.00;3.13;;;38.30;37.30;;;;;;4927330;29;20036;-71
2023/06/16 17:35:35;;;;;;;5.07;3.38;;;38.00;37.20;;;;;;4927889;29;20024;-73
2023/06/16 17:38:01;;;;;;;4.53;3.13;;;37.70;37.40;;;;;;4927924;29;20076;-72
2023/06/16 17:40:34;;;;;;;5.88;2.90;;;37.80;37.40;;;;;;4926352;29;20215;-72
2023/06/16 17:43:04;;;;;;;5.70;3.17;;;37.80;37.40;;;;;;4927805;29;20067;-71
2023/06/16 17:45:32;;;;;;;6.40;3.20;;;37.80;37.50;;;;;;4927700;29;20043;-75
2023/06/16 17:47:59;;;;;;;5.97;3.13;;;37.80;37.40;;;;;;4927674;29;20032;-71